createdAt,value
2022-12-19T00:01:58.672Z,102378.86
2022-12-19T00:04:27.278Z,102370.56
2022-12-19T00:06:57.939Z,102368.27
2022-12-19T00:09:27.398Z,102372.76
2022-12-19T00:11:55.668Z,102371.95
2022-12-19T00:14:23.852Z,102367.20
2022-12-19T00:16:52.202Z,102360.98
2022-12-19T00:19:20.388Z,102363.39
2022-12-19T00:21:48.613Z,102362.59
2022-12-19T00:24:21.240Z,102359.39
2022-12-19T00:26:50.202Z,102359.90
2022-12-19T00:29:18.492Z,102355.55
2022-12-19T00:31:46.860Z,102354.55
2022-12-19T00:34:16.058Z,102357.79
2022-12-19T00:36:44.436Z,102355.83
2022-12-19T00:39:12.447Z,102351.99
2022-12-19T00:41:41.621Z,102347.05
2022-12-19T00:44:14.613Z,102348.80
2022-12-19T00:46:47.399Z,102348.87
2022-12-19T00:49:21.590Z,102345.99
2022-12-19T00:51:49.963Z,102340.59
2022-12-19T00:54:18.137Z,102341.77
2022-12-19T00:56:46.918Z,102336.16
2022-12-19T00:59:14.947Z,102332.88
2022-12-19T01:01:46.514Z,102327.84
2022-12-19T01:04:33.456Z,102323.94
2022-12-19T01:07:04.315Z,102329.54
2022-12-19T01:09:34.616Z,102329.58
2022-12-19T01:12:06.645Z,102330.84
2022-12-19T01:14:35.607Z,102333.08
2022-12-19T01:17:03.861Z,102332.59
2022-12-19T01:19:31.966Z,102334.52
2022-12-19T01:22:01.676Z,102336.33
2022-12-19T01:24:30.445Z,102335.48
2022-12-19T01:26:58.529Z,102340.53
2022-12-19T01:29:28.861Z,102342.38
2022-12-19T01:31:59.087Z,102347.75
2022-12-19T01:34:28.290Z,102349.69
2022-12-19T01:36:56.911Z,102354.68
2022-12-19T01:39:25.163Z,102355.98
2022-12-19T01:41:56.054Z,102352.17
2022-12-19T01:44:25.127Z,102351.91
2022-12-19T01:46:56.756Z,102356.89
2022-12-19T01:49:38.046Z,102357.74
2022-12-19T01:52:10.321Z,102356.77
2022-12-19T01:54:42.841Z,102360.83
2022-12-19T01:57:14.339Z,102360.46
2022-12-19T01:59:54.088Z,102358.46
2022-12-19T02:02:31.499Z,102358.40
2022-12-19T02:05:00.696Z,102353.17
2022-12-19T02:07:29.540Z,102356.35
2022-12-19T02:09:58.783Z,102358.82
2022-12-19T02:12:30.281Z,102355.35
2022-12-19T02:15:02.945Z,102356.40
2022-12-19T02:17:31.524Z,102355.34
2022-12-19T02:20:05.381Z,102359.30
2022-12-19T02:22:52.446Z,102361.34
2022-12-19T02:25:39.274Z,102359.64
2022-12-19T02:28:25.971Z,102358.09
2022-12-19T02:31:17.705Z,102355.44
2022-12-19T02:33:56.241Z,102356.63
2022-12-19T02:36:48.383Z,102354.30
2022-12-19T02:39:37.179Z,102353.98
2022-12-19T02:42:08.316Z,102357.41
2022-12-19T02:44:51.700Z,102356.63
2022-12-19T02:47:21.890Z,102361.15
2022-12-19T02:49:50.185Z,102359.98
2022-12-19T02:52:21.440Z,102360.33
2022-12-19T02:54:52.285Z,102360.70
2022-12-19T02:57:38.002Z,102357.27
2022-12-19T03:00:14.867Z,102357.92
2022-12-19T03:03:05.881Z,102353.14
2022-12-19T03:05:57.972Z,102351.38
2022-12-19T03:08:38.989Z,102347.74
2022-12-19T03:11:14.225Z,102340.77
2022-12-19T03:13:48.508Z,102342.22
2022-12-19T03:16:16.690Z,102340.59
2022-12-19T03:18:45.710Z,102340.09
2022-12-19T03:21:37.242Z,102334.96
2022-12-19T03:24:09.524Z,102337.13
2022-12-19T03:27:02.688Z,102338.17
2022-12-19T03:29:33.100Z,102336.93
2022-12-19T03:32:04.371Z,102331.79
2022-12-19T03:34:42.526Z,102329.02
2022-12-19T03:37:17.073Z,102331.38
2022-12-19T03:39:48.924Z,102331.80
2022-12-19T03:42:19.241Z,102324.05
2022-12-19T03:44:50.313Z,102323.55
2022-12-19T03:47:23.989Z,102323.71
2022-12-19T03:49:53.153Z,102323.67
2022-12-19T03:52:30.337Z,102319.39
2022-12-19T03:55:25.297Z,102313.94
2022-12-19T03:58:13.935Z,102315.50
2022-12-19T04:00:46.404Z,102313.73
2022-12-19T04:03:17.867Z,102313.17
2022-12-19T04:05:48.220Z,102316.39
2022-12-19T04:08:17.371Z,102311.48
2022-12-19T04:10:52.119Z,102305.80
2022-12-19T04:13:32.378Z,102307.02
2022-12-19T04:16:18.356Z,102306.23
2022-12-19T04:18:52.936Z,102306.35
2022-12-19T04:21:51.405Z,102303.80
2022-12-19T04:24:26.371Z,102306.23
2022-12-19T04:26:57.374Z,102303.25
2022-12-19T04:29:28.332Z,102302.65
2022-12-19T04:31:57.086Z,102298.16
2022-12-19T04:34:25.685Z,102299.75
2022-12-19T04:36:54.015Z,102298.39
2022-12-19T04:39:22.461Z,102300.06
2022-12-19T04:41:51.371Z,102299.20
2022-12-19T04:44:19.599Z,102297.90
2022-12-19T04:46:47.935Z,102303.39
2022-12-19T04:49:16.420Z,102305.48
2022-12-19T04:51:44.525Z,102302.95
2022-12-19T04:54:12.699Z,102301.77
2022-12-19T04:56:41.220Z,102300.61
2022-12-19T04:59:13.363Z,102304.95
2022-12-19T05:01:41.859Z,102303.73
2022-12-19T05:04:10.334Z,102301.02
2022-12-19T05:06:38.621Z,102303.15
2022-12-19T05:09:07.295Z,102304.93
2022-12-19T05:11:35.423Z,102309.70
2022-12-19T05:14:04.047Z,102308.86
2022-12-19T05:16:32.440Z,102314.06
2022-12-19T05:19:00.571Z,102315.17
2022-12-19T05:21:28.685Z,102312.77
2022-12-19T05:23:56.980Z,102315.98
2022-12-19T05:26:27.761Z,102319.19
2022-12-19T05:28:55.837Z,102317.54
2022-12-19T05:31:24.358Z,102318.93
2022-12-19T05:33:52.605Z,102317.70
2022-12-19T05:36:21.975Z,102319.44
2022-12-19T05:38:50.372Z,102316.99
2022-12-19T05:41:20.841Z,102322.86
2022-12-19T05:43:54.486Z,102320.10
2022-12-19T05:46:23.907Z,102321.92
2022-12-19T05:48:53.337Z,102328.29
2022-12-19T05:51:22.190Z,102329.27
2022-12-19T05:53:50.221Z,102331.17
2022-12-19T05:56:21.527Z,102327.73
2022-12-19T05:58:50.443Z,102326.93
2022-12-19T06:01:25.221Z,102332.81
2022-12-19T06:03:54.991Z,102333.56
2022-12-19T06:06:26.429Z,102330.83
2022-12-19T06:08:56.332Z,102331.64
2022-12-19T06:11:26.225Z,102330.31
2022-12-19T06:13:54.950Z,102328.50
2022-12-19T06:16:23.656Z,102330.77
2022-12-19T06:18:52.034Z,102334.69
2022-12-19T06:21:22.293Z,102331.97
2022-12-19T06:23:50.995Z,102331.79
2022-12-19T06:26:21.127Z,102335.56
2022-12-19T06:28:51.080Z,102333.49
2022-12-19T06:31:21.307Z,102336.09
2022-12-19T06:33:50.087Z,102339.89
2022-12-19T06:36:24.445Z,102336.90
2022-12-19T06:38:55.119Z,102341.79
2022-12-19T06:41:23.954Z,102337.30
2022-12-19T06:43:53.869Z,102337.70
2022-12-19T06:46:22.349Z,102335.37
2022-12-19T06:48:51.808Z,102336.57
2022-12-19T06:51:20.475Z,102331.73
2022-12-19T06:53:49.611Z,102329.55
2022-12-19T06:56:18.434Z,102331.78
2022-12-19T06:58:47.529Z,102326.08
2022-12-19T07:01:34.786Z,102328.60
2022-12-19T07:04:03.646Z,102330.66
2022-12-19T07:06:31.861Z,102331.84
2022-12-19T07:08:59.999Z,102330.32
2022-12-19T07:11:28.259Z,102331.75
2022-12-19T07:13:57.137Z,102334.83
2022-12-19T07:16:26.752Z,102337.63
2022-12-19T07:18:55.325Z,102341.35
2022-12-19T07:21:23.450Z,102343.02
2022-12-19T07:23:51.661Z,102345.14
2022-12-19T07:26:20.008Z,102344.39
2022-12-19T07:28:48.110Z,102344.15
2022-12-19T07:31:16.299Z,102347.21
2022-12-19T07:33:44.499Z,102349.61
2022-12-19T07:36:13.481Z,102351.34
2022-12-19T07:38:42.308Z,102348.08
2022-12-19T07:41:10.779Z,102344.40
2022-12-19T07:43:40.229Z,102343.77
2022-12-19T07:46:08.825Z,102346.22
2022-12-19T07:48:37.347Z,102348.18
2022-12-19T07:51:06.262Z,102344.84
2022-12-19T07:53:34.454Z,102345.77
2022-12-19T07:56:02.724Z,102347.42
2022-12-19T07:58:30.873Z,102347.80
2022-12-19T08:01:00.683Z,102351.23
2022-12-19T08:03:29.354Z,102353.23
2022-12-19T08:06:01.803Z,102355.67
2022-12-19T08:08:30.552Z,102356.55
2022-12-19T08:11:19.853Z,102359.91
2022-12-19T08:13:48.794Z,102365.84
2022-12-19T08:16:17.070Z,102371.65
2022-12-19T08:18:45.829Z,102372.13
2022-12-19T08:21:14.609Z,102372.13
2022-12-19T08:23:42.872Z,102374.79
2022-12-19T08:26:13.545Z,102381.45
2022-12-19T08:28:41.828Z,102382.17
2022-12-19T08:31:13.029Z,102379.86
2022-12-19T08:33:42.402Z,102385.36
2022-12-19T08:36:13.333Z,102386.89
2022-12-19T08:38:42.070Z,102388.35
2022-12-19T08:41:11.177Z,102399.42
2022-12-19T08:43:39.843Z,102402.63
2022-12-19T08:46:10.124Z,102410.17
2022-12-19T08:48:38.575Z,102412.08
2022-12-19T08:51:08.958Z,102410.60
2022-12-19T08:53:39.462Z,102413.60
2022-12-19T08:56:17.264Z,102416.30
2022-12-19T08:58:46.218Z,102421.10
2022-12-19T09:01:17.785Z,102422.84
2022-12-19T09:04:50.252Z,102430.26
2022-12-19T09:06:35.929Z,102430.13
2022-12-19T09:09:05.553Z,102433.02
2022-12-19T09:11:33.770Z,102440.14
2022-12-19T09:14:04.464Z,102445.96
2022-12-19T09:16:32.980Z,102452.16
2022-12-19T09:19:01.142Z,102454.73
2022-12-19T09:21:30.011Z,102451.55
2022-12-19T09:24:07.025Z,102447.48
2022-12-19T09:26:38.191Z,102450.78
2022-12-19T09:29:19.657Z,102452.54
2022-12-19T09:31:55.257Z,102451.86
2022-12-19T09:34:37.089Z,102456.38
2022-12-19T09:37:15.170Z,102457.05
2022-12-19T09:39:47.260Z,102459.61
2022-12-19T09:42:41.455Z,102460.77
2022-12-19T09:45:58.362Z,102457.78
2022-12-19T09:48:26.590Z,102456.60
2022-12-19T09:51:11.173Z,102456.56
2022-12-19T09:54:01.754Z,102456.80
2022-12-19T09:56:45.363Z,102455.64
2022-12-19T09:59:39.722Z,102454.36
2022-12-19T10:02:37.883Z,102456.15
2022-12-19T10:05:27.864Z,102456.58
2022-12-19T10:08:08.390Z,102455.97
2022-12-19T10:12:38.769Z,102462.20
2022-12-19T10:13:45.225Z,102462.09
2022-12-19T10:16:36.611Z,102459.13
2022-12-19T10:19:15.195Z,102459.38
2022-12-19T10:22:18.194Z,102452.08
2022-12-19T10:25:21.709Z,102452.10
2022-12-19T10:27:59.708Z,102444.95
2022-12-19T10:30:32.424Z,102440.84
2022-12-19T10:33:28.983Z,102437.92
2022-12-19T10:36:01.982Z,102430.52
2022-12-19T10:38:51.028Z,102421.32
2022-12-19T10:41:29.819Z,102417.66
2022-12-19T10:44:09.172Z,102412.58
2022-12-19T10:46:47.136Z,102409.83
2022-12-19T10:49:17.893Z,102412.65
2022-12-19T10:52:07.986Z,102407.18
2022-12-19T10:54:36.320Z,102407.55
2022-12-19T10:57:22.704Z,102402.64
2022-12-19T11:00:19.223Z,102403.50
2022-12-19T11:02:50.898Z,102401.48
2022-12-19T11:05:31.315Z,102385.91
2022-12-19T11:08:11.275Z,102383.20
2022-12-19T11:11:34.378Z,102378.17
2022-12-19T11:18:23.032Z,102373.32
2022-12-19T11:21:41.075Z,102368.89
2022-12-19T11:29:24.991Z,102362.74
2022-12-19T11:29:38.157Z,102356.17
2022-12-19T11:30:47.445Z,102351.13
2022-12-19T11:30:47.446Z,102352.62
2022-12-19T11:34:25.163Z,102333.20
2022-12-19T11:37:18.462Z,102329.92
2022-12-19T11:40:15.729Z,102326.95
2022-12-19T11:43:41.955Z,102325.13
2022-12-19T11:46:24.204Z,102320.36
2022-12-19T11:49:02.594Z,102317.24
2022-12-19T11:51:48.758Z,102318.14
2022-12-19T11:54:35.019Z,102318.57
2022-12-19T11:57:03.927Z,102314.79
2022-12-19T11:59:37.116Z,102308.06
2022-12-19T12:02:30.971Z,102306.09
2022-12-19T12:05:09.383Z,102303.55
2022-12-19T12:08:40.526Z,102301.91
2022-12-19T12:15:11.283Z,102299.11
2022-12-19T12:21:50.076Z,102294.55
2022-12-19T12:28:41.532Z,102285.13
2022-12-19T12:30:11.680Z,102293.95
2022-12-19T12:31:05.201Z,102284.91
2022-12-19T12:31:38.593Z,102279.23
2022-12-19T12:31:49.077Z,102280.38
2022-12-19T12:35:38.189Z,102276.77
2022-12-19T12:35:48.613Z,102275.81
2022-12-19T12:38:25.427Z,102274.96
2022-12-19T12:41:16.795Z,102268.50
2022-12-19T12:43:47.898Z,102268.09
2022-12-19T12:46:23.494Z,102269.11
2022-12-19T12:48:58.978Z,102267.65
2022-12-19T12:51:28.160Z,102268.71
2022-12-19T12:54:06.208Z,102264.88
2022-12-19T12:56:36.872Z,102266.17
2022-12-19T12:59:20.785Z,102266.17
2022-12-19T13:02:17.858Z,102261.89
2022-12-19T13:05:00.284Z,102250.94
2022-12-19T13:07:51.442Z,102248.67
2022-12-19T13:10:29.889Z,102245.39
2022-12-19T13:13:15.832Z,102241.56
2022-12-19T13:15:46.535Z,102242.52
2022-12-19T13:18:35.287Z,102241.74
2022-12-19T13:21:05.824Z,102237.50
2022-12-19T13:23:36.876Z,102236.58
2022-12-19T13:26:19.956Z,102232.09
2022-12-19T13:28:48.731Z,102228.93
2022-12-19T13:31:22.398Z,102228.02
2022-12-19T13:33:57.132Z,102230.47
2022-12-19T13:39:54.403Z,102227.67
2022-12-19T13:40:14.159Z,102223.92
2022-12-19T13:43:10.599Z,102221.48
2022-12-19T13:45:48.179Z,102220.79
2022-12-19T13:48:26.661Z,102222.32
2022-12-19T13:50:57.008Z,102217.08
2022-12-19T13:53:30.336Z,102216.48
2022-12-19T13:56:06.255Z,102217.27
2022-12-19T13:58:45.245Z,102217.80
2022-12-19T14:01:30.873Z,102215.04
2022-12-19T14:04:08.730Z,102213.04
2022-12-19T14:06:46.980Z,102214.20
2022-12-19T14:11:29.368Z,102210.44
2022-12-19T14:13:53.335Z,102212.66
2022-12-19T14:15:35.204Z,102209.83
2022-12-19T14:18:42.713Z,102206.05
2022-12-19T14:22:07.036Z,102200.23
2022-12-19T14:24:20.067Z,102197.63
2022-12-19T14:28:24.083Z,102194.79
2022-12-19T14:30:27.745Z,102192.63
2022-12-19T14:33:46.308Z,102185.79
2022-12-19T14:36:11.293Z,102187.37
2022-12-19T14:39:27.112Z,102186.27
2022-12-19T14:41:27.665Z,102188.16
2022-12-19T14:50:25.593Z,102190.70
2022-12-19T14:52:35.337Z,102192.27
2022-12-19T14:54:05.506Z,102192.42
2022-12-19T14:54:55.200Z,102195.60
2022-12-19T14:56:11.484Z,102191.05
2022-12-19T14:58:53.010Z,102192.59
2022-12-19T15:01:24.978Z,102188.69
2022-12-19T15:04:51.894Z,102187.97
2022-12-19T15:07:07.984Z,102195.02
2022-12-19T15:11:08.247Z,102187.45
2022-12-19T15:14:47.322Z,102193.38
2022-12-19T15:15:40.385Z,102189.92
2022-12-19T15:18:33.167Z,102192.70
2022-12-19T15:21:09.225Z,102184.90
2022-12-19T15:23:37.221Z,102184.71
2022-12-19T15:26:11.376Z,102181.76
2022-12-19T15:28:43.748Z,102185.36
2022-12-19T15:31:18.237Z,102185.38
2022-12-19T15:34:14.899Z,102189.86
2022-12-19T15:36:35.579Z,102190.49
2022-12-19T15:39:04.600Z,102191.46
2022-12-19T15:41:32.669Z,102194.54
2022-12-19T15:44:07.559Z,102196.39
2022-12-19T15:46:35.840Z,102197.33
2022-12-19T15:49:04.066Z,102197.27
2022-12-19T15:51:32.277Z,102195.67
2022-12-19T15:54:30.180Z,102192.84
2022-12-19T15:56:53.095Z,102190.92
2022-12-19T15:59:37.862Z,102193.32
2022-12-19T16:02:18.514Z,102191.60
2022-12-19T16:04:50.178Z,102194.14
2022-12-19T16:07:21.755Z,102194.30
2022-12-19T16:09:50.611Z,102196.18
2022-12-19T16:12:25.109Z,102195.25
2022-12-19T16:14:59.926Z,102195.24
2022-12-19T16:17:32.116Z,102195.04
2022-12-19T16:20:00.322Z,102193.28
2022-12-19T16:22:29.795Z,102194.86
2022-12-19T16:24:58.113Z,102197.27
2022-12-19T16:27:31.644Z,102196.80
2022-12-19T16:30:18.557Z,102194.85
2022-12-19T16:32:50.809Z,102192.70
2022-12-19T16:35:40.164Z,102193.05
2022-12-19T16:38:09.743Z,102187.82
2022-12-19T16:40:38.430Z,102188.14
2022-12-19T16:43:19.438Z,102191.59
2022-12-19T16:45:48.039Z,102194.91
2022-12-19T16:48:26.766Z,102196.73
2022-12-19T16:50:57.856Z,102196.33
2022-12-19T16:53:26.256Z,102196.56
2022-12-19T16:55:56.787Z,102197.11
2022-12-19T16:58:27.503Z,102194.98
2022-12-19T17:00:56.428Z,102196.55
2022-12-19T17:03:30.713Z,102198.06
2022-12-19T17:05:59.272Z,102198.34
2022-12-19T17:08:27.672Z,102201.48
2022-12-19T17:10:56.417Z,102199.86
2022-12-19T17:13:25.442Z,102202.08
2022-12-19T17:15:57.092Z,102203.80
2022-12-19T17:18:30.944Z,102206.00
2022-12-19T17:20:59.561Z,102206.32
2022-12-19T17:23:30.113Z,102210.08
2022-12-19T17:25:59.260Z,102210.46
2022-12-19T17:28:29.210Z,102213.66
2022-12-19T17:31:02.618Z,102217.27
2022-12-19T17:33:36.129Z,102217.92
2022-12-19T17:36:06.438Z,102217.05
2022-12-19T17:38:35.110Z,102219.94
2022-12-19T17:41:04.225Z,102220.80
2022-12-19T17:43:32.789Z,102215.42
2022-12-19T17:46:01.333Z,102217.46
2022-12-19T17:48:32.350Z,102224.75
2022-12-19T17:51:01.432Z,102225.44
2022-12-19T17:53:29.726Z,102228.98
2022-12-19T17:55:57.957Z,102232.79
2022-12-19T17:58:26.274Z,102234.58
2022-12-19T18:00:54.574Z,102238.99
2022-12-19T18:03:26.919Z,102243.05
2022-12-19T18:05:56.303Z,102241.07
2022-12-19T18:08:28.652Z,102245.38
2022-12-19T18:11:01.470Z,102243.14
2022-12-19T18:13:31.580Z,102243.96
2022-12-19T18:16:02.454Z,102242.43
2022-12-19T18:18:34.949Z,102242.34
2022-12-19T18:21:04.389Z,102244.67
2022-12-19T18:23:33.466Z,102247.85
2022-12-19T18:26:02.812Z,102248.63
2022-12-19T18:28:31.414Z,102251.07
2022-12-19T18:31:03.285Z,102257.08
2022-12-19T18:33:42.089Z,102256.61
2022-12-19T18:36:19.692Z,102255.30
2022-12-19T18:38:50.106Z,102252.80
2022-12-19T18:41:19.398Z,102255.08
2022-12-19T18:43:48.523Z,102258.67
2022-12-19T18:46:22.747Z,102260.77
2022-12-19T18:48:51.248Z,102264.95
2022-12-19T18:51:22.285Z,102264.69
2022-12-19T18:53:52.237Z,102264.63
2022-12-19T18:56:20.623Z,102264.14
2022-12-19T18:58:48.768Z,102263.27
2022-12-19T19:01:19.580Z,102266.25
2022-12-19T19:03:56.957Z,102264.38
2022-12-19T19:06:32.952Z,102268.42
2022-12-19T19:09:04.198Z,102265.13
2022-12-19T19:11:32.381Z,102260.64
2022-12-19T19:14:00.508Z,102263.10
2022-12-19T19:16:28.892Z,102264.59
2022-12-19T19:18:58.935Z,102262.42
2022-12-19T19:21:32.263Z,102262.08
2022-12-19T19:24:06.157Z,102258.94
2022-12-19T19:26:34.362Z,102261.58
2022-12-19T19:29:02.570Z,102262.35
2022-12-19T19:31:33.779Z,102265.77
2022-12-19T19:34:12.741Z,102265.73
2022-12-19T19:36:45.851Z,102266.98
2022-12-19T19:39:14.156Z,102270.77
2022-12-19T19:41:42.261Z,102268.92
2022-12-19T19:44:10.513Z,102275.38
2022-12-19T19:46:38.789Z,102274.79
2022-12-19T19:49:07.801Z,102274.36
2022-12-19T19:51:36.854Z,102276.89
2022-12-19T19:54:05.242Z,102274.95
2022-12-19T19:56:33.637Z,102270.52
2022-12-19T19:59:02.090Z,102272.17
2022-12-19T20:01:30.418Z,102267.69
2022-12-19T20:03:58.818Z,102266.63
2022-12-19T20:06:27.405Z,102264.63
2022-12-19T20:08:55.761Z,102265.43
2022-12-19T20:11:24.846Z,102267.61
2022-12-19T20:13:52.775Z,102267.10
2022-12-19T20:16:20.973Z,102268.83
2022-12-19T20:18:51.728Z,102267.18
2022-12-19T20:21:21.088Z,102262.82
2022-12-19T20:23:49.210Z,102260.92
2022-12-19T20:26:17.853Z,102262.93
2022-12-19T20:28:49.560Z,102265.34
2022-12-19T20:31:20.827Z,102264.41
2022-12-19T20:33:49.410Z,102265.42
2022-12-19T20:36:17.944Z,102263.65
2022-12-19T20:38:46.567Z,102267.39
2022-12-19T20:41:16.442Z,102263.77
2022-12-19T20:43:45.146Z,102259.80
2022-12-19T20:46:16.406Z,102258.39
2022-12-19T20:48:45.366Z,102256.38
2022-12-19T20:51:15.968Z,102252.34
2022-12-19T20:53:45.549Z,102247.89
2022-12-19T20:56:16.961Z,102250.48
2022-12-19T20:58:46.290Z,102250.27
2022-12-19T21:01:21.085Z,102250.65
2022-12-19T21:03:50.440Z,102249.02
2022-12-19T21:06:21.118Z,102249.00
2022-12-19T21:08:53.535Z,102245.52
2022-12-19T21:11:22.619Z,102240.07
2022-12-19T21:13:50.911Z,102236.91
2022-12-19T21:16:21.176Z,102234.20
2022-12-19T21:18:51.034Z,102235.95
2022-12-19T21:21:23.649Z,102233.15
2022-12-19T21:23:52.743Z,102230.88
2022-12-19T21:26:23.113Z,102225.73
2022-12-19T21:28:51.347Z,102228.13
2022-12-19T21:31:26.709Z,102223.98
2022-12-19T21:33:56.928Z,102223.61
2022-12-19T21:36:26.640Z,102225.84
2022-12-19T21:38:58.126Z,102223.51
2022-12-19T21:41:27.174Z,102223.90
2022-12-19T21:43:56.284Z,102222.07
2022-12-19T21:46:27.984Z,102226.25
2022-12-19T21:48:58.934Z,102227.45
2022-12-19T21:51:29.943Z,102227.77
2022-12-19T21:54:02.280Z,102225.45
2022-12-19T21:56:35.799Z,102225.89
2022-12-19T21:59:06.376Z,102227.87
2022-12-19T22:01:34.679Z,102227.48
2022-12-19T22:04:10.703Z,102225.21
2022-12-19T22:06:39.935Z,102223.59
2022-12-19T22:09:12.192Z,102222.73
2022-12-19T22:11:40.391Z,102217.49
2022-12-19T22:14:08.805Z,102213.48
2022-12-19T22:16:37.381Z,102213.29
2022-12-19T22:19:06.769Z,102212.01
2022-12-19T22:21:35.246Z,102211.15
2022-12-19T22:24:04.137Z,102213.77
2022-12-19T22:26:32.957Z,102214.66
2022-12-19T22:29:01.463Z,102213.27
2022-12-19T22:31:32.563Z,102210.13
2022-12-19T22:34:03.681Z,102212.00
2022-12-19T22:36:36.385Z,102212.27
2022-12-19T22:39:06.615Z,102211.07
2022-12-19T22:41:36.214Z,102206.07
2022-12-19T22:44:06.405Z,102205.21
2022-12-19T22:46:38.037Z,102204.79
2022-12-19T22:49:08.941Z,102209.89
2022-12-19T22:51:37.563Z,102209.80
2022-12-19T22:54:07.364Z,102210.70
2022-12-19T22:56:36.596Z,102209.53
2022-12-19T22:59:07.394Z,102207.28
2022-12-19T23:01:42.554Z,102206.76
2022-12-19T23:04:15.359Z,102204.10
2022-12-19T23:06:44.547Z,102202.83
2022-12-19T23:09:16.022Z,102197.49
2022-12-19T23:11:47.245Z,102198.96
2022-12-19T23:14:18.466Z,102196.11
2022-12-19T23:16:48.124Z,102194.65
2022-12-19T23:19:18.049Z,102194.63
2022-12-19T23:21:46.275Z,102190.84
2022-12-19T23:24:14.703Z,102189.86
2022-12-19T23:26:42.976Z,102184.04
2022-12-19T23:29:14.014Z,102178.39
2022-12-19T23:31:44.926Z,102174.66
2022-12-19T23:34:14.239Z,102176.83
2022-12-19T23:39:30.414Z,102179.89
2022-12-19T23:41:58.534Z,102182.19
2022-12-19T23:44:27.025Z,102179.48
2022-12-19T23:47:02.385Z,102176.21
2022-12-19T23:49:32.955Z,102174.44
2022-12-19T23:52:01.504Z,102170.61
2022-12-19T23:54:29.739Z,102169.88
2022-12-19T23:56:57.831Z,102176.42
2022-12-19T23:59:26.039Z,102175.86
